sensor_id;sensor_type;location;lat;lon;timestamp;temperature;humidity
10411;DHT22;5251;52.112;8.606;2022-08-01T00:00:24;22.50;99.90
10411;DHT22;5251;52.112;8.606;2022-08-01T00:02:50;22.50;99.90
10411;DHT22;5251;52.112;8.606;2022-08-01T00:05:16;22.50;99.90
10411;DHT22;5251;52.112;8.606;2022-08-01T00:07:41;22.50;99.90
10411;DHT22;5251;52.112;8.606;2022-08-01T00:10:11;22.50;99.90
10411;DHT22;5251;52.112;8.606;2022-08-01T00:12:38;22.50;99.90
10411;DHT22;5251;52.112;8.606;2022-08-01T00:15:07;22.40;99.90
10411;DHT22;5251;52.112;8.606;2022-08-01T00:17:33;22.50;99.90
10411;DHT22;5251;52.112;8.606;2022-08-01T00:19:59;22.40;99.90
10411;DHT22;5251;52.112;8.606;2022-08-01T00:22:25;22.40;99.90
10411;DHT22;5251;52.112;8.606;2022-08-01T00:24:50;22.50;99.90
10411;DHT22;5251;52.112;8.606;2022-08-01T00:27:16;22.40;99.90
10411;DHT22;5251;52.112;8.606;2022-08-01T00:29:41;22.50;99.90
10411;DHT22;5251;52.112;8.606;2022-08-01T00:32:07;22.50;99.90
10411;DHT22;5251;52.112;8.606;2022-08-01T00:34:33;22.40;99.90
10411;DHT22;5251;52.112;8.606;2022-08-01T00:36:59;22.40;99.90
10411;DHT22;5251;52.112;8.606;2022-08-01T00:39:24;22.40;99.90
10411;DHT22;5251;52.112;8.606;2022-08-01T00:41:50;22.40;99.90
10411;DHT22;5251;52.112;8.606;2022-08-01T00:44:15;22.40;99.90
10411;DHT22;5251;52.112;8.606;2022-08-01T00:46:41;22.40;99.90
10411;DHT22;5251;52.112;8.606;2022-08-01T00:49:07;22.40;99.90
10411;DHT22;5251;52.112;8.606;2022-08-01T00:51:33;22.40;99.90
10411;DHT22;5251;52.112;8.606;2022-08-01T00:53:59;22.40;99.90
10411;DHT22;5251;52.112;8.606;2022-08-01T00:56:26;22.40;99.90
10411;DHT22;5251;52.112;8.606;2022-08-01T00:58:53;22.40;99.90
10411;DHT22;5251;52.112;8.606;2022-08-01T01:01:19;22.40;99.90
10411;DHT22;5251;52.112;8.606;2022-08-01T01:03:50;22.40;99.90
10411;DHT22;5251;52.112;8.606;2022-08-01T01:06:34;22.40;99.90
10411;DHT22;5251;52.112;8.606;2022-08-01T01:14:58;22.30;99.90
10411;DHT22;5251;52.112;8.606;2022-08-01T01:17:35;22.30;99.90
10411;DHT22;5251;52.112;8.606;2022-08-01T01:20:03;22.30;99.90
10411;DHT22;5251;52.112;8.606;2022-08-01T01:28:10;22.30;99.90
10411;DHT22;5251;52.112;8.606;2022-08-01T01:30:42;22.30;99.90
10411;DHT22;5251;52.112;8.606;2022-08-01T01:33:10;22.30;99.90
10411;DHT22;5251;52.112;8.606;2022-08-01T01:35:46;22.20;99.90
10411;DHT22;5251;52.112;8.606;2022-08-01T01:38:20;22.20;99.90
10411;DHT22;5251;52.112;8.606;2022-08-01T01:40:48;22.20;99.90
10411;DHT22;5251;52.112;8.606;2022-08-01T01:43:15;22.20;99.90
10411;DHT22;5251;52.112;8.606;2022-08-01T01:45:42;22.10;99.90
10411;DHT22;5251;52.112;8.606;2022-08-01T01:48:10;22.10;99.90
10411;DHT22;5251;52.112;8.606;2022-08-01T01:50:39;22.20;99.90
10411;DHT22;5251;52.112;8.606;2022-08-01T01:53:07;22.10;99.90
10411;DHT22;5251;52.112;8.606;2022-08-01T01:55:37;22.20;99.90
10411;DHT22;5251;52.112;8.606;2022-08-01T01:58:05;22.10;99.90
10411;DHT22;5251;52.112;8.606;2022-08-01T02:00:32;22.10;99.90
10411;DHT22;5251;52.112;8.606;2022-08-01T02:03:01;22.10;99.90
10411;DHT22;5251;52.112;8.606;2022-08-01T02:05:28;22.10;99.90
10411;DHT22;5251;52.112;8.606;2022-08-01T02:07:54;22.10;99.90
10411;DHT22;5251;52.112;8.606;2022-08-01T02:10:21;22.10;99.90
10411;DHT22;5251;52.112;8.606;2022-08-01T02:12:48;22.10;99.90
10411;DHT22;5251;52.112;8.606;2022-08-01T02:15:15;22.10;99.90
10411;DHT22;5251;52.112;8.606;2022-08-01T02:17:45;22.10;99.90
10411;DHT22;5251;52.112;8.606;2022-08-01T02:20:12;22.10;99.90
10411;DHT22;5251;52.112;8.606;2022-08-01T02:22:53;22.10;99.90
10411;DHT22;5251;52.112;8.606;2022-08-01T02:25:29;22.10;99.90
10411;DHT22;5251;52.112;8.606;2022-08-01T02:28:04;22.10;99.90
10411;DHT22;5251;52.112;8.606;2022-08-01T02:30:33;22.00;99.90
10411;DHT22;5251;52.112;8.606;2022-08-01T02:33:07;22.00;99.90
10411;DHT22;5251;52.112;8.606;2022-08-01T02:35:37;22.00;99.90
10411;DHT22;5251;52.112;8.606;2022-08-01T02:38:05;22.00;99.90
10411;DHT22;5251;52.112;8.606;2022-08-01T02:40:33;22.00;99.90
10411;DHT22;5251;52.112;8.606;2022-08-01T02:43:00;22.00;99.90
10411;DHT22;5251;52.112;8.606;2022-08-01T02:45:27;22.00;99.90
10411;DHT22;5251;52.112;8.606;2022-08-01T02:48:06;21.90;99.90
10411;DHT22;5251;52.112;8.606;2022-08-01T02:50:34;21.90;99.90
10411;DHT22;5251;52.112;8.606;2022-08-01T02:53:01;21.90;99.90
10411;DHT22;5251;52.112;8.606;2022-08-01T02:55:28;21.90;99.90
10411;DHT22;5251;52.112;8.606;2022-08-01T02:57:55;21.90;99.90
10411;DHT22;5251;52.112;8.606;2022-08-01T03:00:22;21.90;99.90
10411;DHT22;5251;52.112;8.606;2022-08-01T03:02:50;21.90;99.90
10411;DHT22;5251;52.112;8.606;2022-08-01T03:05:20;21.90;99.90
10411;DHT22;5251;52.112;8.606;2022-08-01T03:07:46;21.80;99.90
10411;DHT22;5251;52.112;8.606;2022-08-01T03:10:14;21.90;99.90
10411;DHT22;5251;52.112;8.606;2022-08-01T03:12:41;21.80;99.90
10411;DHT22;5251;52.112;8.606;2022-08-01T03:15:09;21.90;99.90
10411;DHT22;5251;52.112;8.606;2022-08-01T03:17:36;21.80;99.90
10411;DHT22;5251;52.112;8.606;2022-08-01T03:20:04;21.80;99.90
10411;DHT22;5251;52.112;8.606;2022-08-01T03:22:30;21.80;99.90
10411;DHT22;5251;52.112;8.606;2022-08-01T03:24:58;21.80;99.90
10411;DHT22;5251;52.112;8.606;2022-08-01T03:27:25;21.80;99.90
10411;DHT22;5251;52.112;8.606;2022-08-01T03:29:51;21.80;99.90
10411;DHT22;5251;52.112;8.606;2022-08-01T03:32:18;21.90;99.90
10411;DHT22;5251;52.112;8.606;2022-08-01T03:34:45;21.80;99.90
10411;DHT22;5251;52.112;8.606;2022-08-01T03:37:21;21.80;99.90
10411;DHT22;5251;52.112;8.606;2022-08-01T03:39:57;21.80;99.90
10411;DHT22;5251;52.112;8.606;2022-08-01T03:42:32;21.80;99.90
10411;DHT22;5251;52.112;8.606;2022-08-01T03:45:10;21.80;99.90
10411;DHT22;5251;52.112;8.606;2022-08-01T03:47:36;21.80;99.90
10411;DHT22;5251;52.112;8.606;2022-08-01T03:50:04;21.90;99.90
10411;DHT22;5251;52.112;8.606;2022-08-01T03:52:32;21.90;99.90
10411;DHT22;5251;52.112;8.606;2022-08-01T03:55:03;21.80;99.90
10411;DHT22;5251;52.112;8.606;2022-08-01T03:57:30;21.80;99.90
10411;DHT22;5251;52.112;8.606;2022-08-01T03:59:57;21.90;99.90
10411;DHT22;5251;52.112;8.606;2022-08-01T04:02:23;21.90;99.90
10411;DHT22;5251;52.112;8.606;2022-08-01T04:04:50;21.90;99.90
10411;DHT22;5251;52.112;8.606;2022-08-01T04:07:33;21.90;99.90
10411;DHT22;5251;52.112;8.606;2022-08-01T04:10:03;21.90;99.90
10411;DHT22;5251;52.112;8.606;2022-08-01T04:12:28;21.80;99.90
10411;DHT22;5251;52.112;8.606;2022-08-01T04:14:54;21.90;99.90
10411;DHT22;5251;52.112;8.606;2022-08-01T04:17:19;21.90;99.90
10411;DHT22;5251;52.112;8.606;2022-08-01T04:19:45;21.90;99.90
10411;DHT22;5251;52.112;8.606;2022-08-01T04:22:14;21.90;99.90
10411;DHT22;5251;52.112;8.606;2022-08-01T04:24:41;21.90;99.90
10411;DHT22;5251;52.112;8.606;2022-08-01T04:27:13;21.90;99.90
10411;DHT22;5251;52.112;8.606;2022-08-01T04:29:40;21.90;99.90
10411;DHT22;5251;52.112;8.606;2022-08-01T04:32:08;21.90;99.90
10411;DHT22;5251;52.112;8.606;2022-08-01T04:34:38;21.90;99.90
10411;DHT22;5251;52.112;8.606;2022-08-01T04:37:07;21.90;99.90
10411;DHT22;5251;52.112;8.606;2022-08-01T04:39:34;21.90;99.90
10411;DHT22;5251;52.112;8.606;2022-08-01T04:42:04;21.90;99.90
10411;DHT22;5251;52.112;8.606;2022-08-01T04:44:30;21.90;99.90
10411;DHT22;5251;52.112;8.606;2022-08-01T04:46:59;21.90;99.90
10411;DHT22;5251;52.112;8.606;2022-08-01T04:49:25;22.00;99.90
10411;DHT22;5251;52.112;8.606;2022-08-01T04:51:56;22.00;99.90
10411;DHT22;5251;52.112;8.606;2022-08-01T04:54:34;22.00;99.90
10411;DHT22;5251;52.112;8.606;2022-08-01T04:57:06;22.00;99.90
10411;DHT22;5251;52.112;8.606;2022-08-01T04:59:33;22.00;99.90
10411;DHT22;5251;52.112;8.606;2022-08-01T05:02:18;22.00;99.90
10411;DHT22;5251;52.112;8.606;2022-08-01T05:04:45;22.10;99.90
10411;DHT22;5251;52.112;8.606;2022-08-01T05:07:12;22.10;99.90
10411;DHT22;5251;52.112;8.606;2022-08-01T05:09:39;22.10;99.90
10411;DHT22;5251;52.112;8.606;2022-08-01T05:12:07;22.20;99.90
10411;DHT22;5251;52.112;8.606;2022-08-01T05:14:33;22.20;99.90
10411;DHT22;5251;52.112;8.606;2022-08-01T05:17:00;22.20;99.90
10411;DHT22;5251;52.112;8.606;2022-08-01T05:19:29;22.30;99.90
10411;DHT22;5251;52.112;8.606;2022-08-01T05:21:54;22.30;99.90
10411;DHT22;5251;52.112;8.606;2022-08-01T05:24:20;22.40;99.90
10411;DHT22;5251;52.112;8.606;2022-08-01T05:26:45;22.40;99.90
10411;DHT22;5251;52.112;8.606;2022-08-01T05:29:11;22.40;99.90
10411;DHT22;5251;52.112;8.606;2022-08-01T05:31:36;22.40;99.90
10411;DHT22;5251;52.112;8.606;2022-08-01T05:34:02;22.50;99.90
10411;DHT22;5251;52.112;8.606;2022-08-01T05:36:28;22.50;99.90
10411;DHT22;5251;52.112;8.606;2022-08-01T05:38:54;22.60;99.90
10411;DHT22;5251;52.112;8.606;2022-08-01T05:41:20;22.70;99.90
10411;DHT22;5251;52.112;8.606;2022-08-01T05:43:46;22.80;99.90
10411;DHT22;5251;52.112;8.606;2022-08-01T05:46:11;22.80;99.90
10411;DHT22;5251;52.112;8.606;2022-08-01T05:48:37;22.90;99.90
10411;DHT22;5251;52.112;8.606;2022-08-01T05:51:03;23.10;99.90
10411;DHT22;5251;52.112;8.606;2022-08-01T05:53:29;23.10;99.90
10411;DHT22;5251;52.112;8.606;2022-08-01T05:55:55;23.20;99.90
10411;DHT22;5251;52.112;8.606;2022-08-01T05:58:21;23.30;99.90
10411;DHT22;5251;52.112;8.606;2022-08-01T06:00:46;23.30;99.90
10411;DHT22;5251;52.112;8.606;2022-08-01T06:03:12;23.40;99.90
10411;DHT22;5251;52.112;8.606;2022-08-01T06:05:39;23.40;99.90
10411;DHT22;5251;52.112;8.606;2022-08-01T06:08:05;23.40;99.90
10411;DHT22;5251;52.112;8.606;2022-08-01T06:10:30;23.50;99.90
10411;DHT22;5251;52.112;8.606;2022-08-01T06:12:56;23.50;99.90
10411;DHT22;5251;52.112;8.606;2022-08-01T06:15:22;23.60;99.90
10411;DHT22;5251;52.112;8.606;2022-08-01T06:17:47;23.60;99.90
10411;DHT22;5251;52.112;8.606;2022-08-01T06:20:13;23.60;99.90
10411;DHT22;5251;52.112;8.606;2022-08-01T06:22:39;23.60;99.90
10411;DHT22;5251;52.112;8.606;2022-08-01T06:25:05;23.60;99.90
10411;DHT22;5251;52.112;8.606;2022-08-01T06:27:34;23.60;99.90
10411;DHT22;5251;52.112;8.606;2022-08-01T06:30:00;23.60;99.90
10411;DHT22;5251;52.112;8.606;2022-08-01T06:32:26;23.50;99.90
10411;DHT22;5251;52.112;8.606;2022-08-01T06:34:52;23.50;99.90
10411;DHT22;5251;52.112;8.606;2022-08-01T06:37:18;23.40;99.90
10411;DHT22;5251;52.112;8.606;2022-08-01T06:39:44;23.40;99.90
10411;DHT22;5251;52.112;8.606;2022-08-01T06:42:09;23.40;99.90
10411;DHT22;5251;52.112;8.606;2022-08-01T06:44:35;23.40;99.90
10411;DHT22;5251;52.112;8.606;2022-08-01T06:47:01;23.40;99.90
10411;DHT22;5251;52.112;8.606;2022-08-01T06:49:27;23.40;99.90
10411;DHT22;5251;52.112;8.606;2022-08-01T06:51:52;23.40;99.90
10411;DHT22;5251;52.112;8.606;2022-08-01T06:54:18;23.40;99.90
10411;DHT22;5251;52.112;8.606;2022-08-01T06:56:43;23.50;99.90
10411;DHT22;5251;52.112;8.606;2022-08-01T06:59:09;23.60;99.90
10411;DHT22;5251;52.112;8.606;2022-08-01T07:01:35;23.60;99.90
10411;DHT22;5251;52.112;8.606;2022-08-01T07:04:01;23.60;99.90
10411;DHT22;5251;52.112;8.606;2022-08-01T07:06:26;23.70;99.90
10411;DHT22;5251;52.112;8.606;2022-08-01T07:08:52;23.70;99.90
10411;DHT22;5251;52.112;8.606;2022-08-01T07:11:18;23.80;99.90
10411;DHT22;5251;52.112;8.606;2022-08-01T07:13:44;23.80;99.90
10411;DHT22;5251;52.112;8.606;2022-08-01T07:16:14;24.00;99.90
10411;DHT22;5251;52.112;8.606;2022-08-01T07:18:41;24.00;99.90
10411;DHT22;5251;52.112;8.606;2022-08-01T07:21:06;24.10;99.90
10411;DHT22;5251;52.112;8.606;2022-08-01T07:23:32;24.20;99.90
10411;DHT22;5251;52.112;8.606;2022-08-01T07:25:58;24.30;99.90
10411;DHT22;5251;52.112;8.606;2022-08-01T07:28:24;24.40;99.90
10411;DHT22;5251;52.112;8.606;2022-08-01T07:30:50;24.50;99.90
10411;DHT22;5251;52.112;8.606;2022-08-01T07:33:15;24.60;99.90
10411;DHT22;5251;52.112;8.606;2022-08-01T07:35:41;24.70;99.90
10411;DHT22;5251;52.112;8.606;2022-08-01T07:38:07;24.80;99.90
10411;DHT22;5251;52.112;8.606;2022-08-01T07:40:33;24.90;99.90
10411;DHT22;5251;52.112;8.606;2022-08-01T07:42:59;25.10;99.90
10411;DHT22;5251;52.112;8.606;2022-08-01T07:45:24;25.20;99.90
10411;DHT22;5251;52.112;8.606;2022-08-01T07:47:52;25.20;99.90
10411;DHT22;5251;52.112;8.606;2022-08-01T07:50:17;25.30;99.90
10411;DHT22;5251;52.112;8.606;2022-08-01T07:52:43;25.40;99.90
10411;DHT22;5251;52.112;8.606;2022-08-01T07:55:10;25.50;99.90
10411;DHT22;5251;52.112;8.606;2022-08-01T07:57:37;25.50;99.90
10411;DHT22;5251;52.112;8.606;2022-08-01T08:00:04;25.50;99.90
10411;DHT22;5251;52.112;8.606;2022-08-01T08:02:31;25.50;99.90
10411;DHT22;5251;52.112;8.606;2022-08-01T08:04:57;25.50;99.90
10411;DHT22;5251;52.112;8.606;2022-08-01T08:07:22;25.50;99.90
10411;DHT22;5251;52.112;8.606;2022-08-01T08:09:48;25.50;99.90
10411;DHT22;5251;52.112;8.606;2022-08-01T08:12:13;25.50;99.90
10411;DHT22;5251;52.112;8.606;2022-08-01T08:14:39;25.50;99.90
10411;DHT22;5251;52.112;8.606;2022-08-01T08:17:05;25.50;99.90
10411;DHT22;5251;52.112;8.606;2022-08-01T08:19:31;25.60;99.90
10411;DHT22;5251;52.112;8.606;2022-08-01T08:21:59;25.50;99.90
10411;DHT22;5251;52.112;8.606;2022-08-01T08:24:25;25.50;99.90
10411;DHT22;5251;52.112;8.606;2022-08-01T08:26:54;25.50;99.90
10411;DHT22;5251;52.112;8.606;2022-08-01T08:29:20;25.50;99.90
10411;DHT22;5251;52.112;8.606;2022-08-01T08:31:47;25.50;99.90
10411;DHT22;5251;52.112;8.606;2022-08-01T08:34:12;25.60;99.90
10411;DHT22;5251;52.112;8.606;2022-08-01T08:36:38;25.60;99.90
10411;DHT22;5251;52.112;8.606;2022-08-01T08:39:04;25.50;99.90
10411;DHT22;5251;52.112;8.606;2022-08-01T08:41:34;25.40;99.60
10411;DHT22;5251;52.112;8.606;2022-08-01T08:44:04;25.30;99.60
10411;DHT22;5251;52.112;8.606;2022-08-01T08:46:31;25.20;99.40
10411;DHT22;5251;52.112;8.606;2022-08-01T08:48:58;25.10;99.60
10411;DHT22;5251;52.112;8.606;2022-08-01T08:51:26;25.10;99.40
10411;DHT22;5251;52.112;8.606;2022-08-01T08:53:55;25.10;99.50
10411;DHT22;5251;52.112;8.606;2022-08-01T08:56:21;25.10;99.90
10411;DHT22;5251;52.112;8.606;2022-08-01T08:58:48;25.10;99.60
10411;DHT22;5251;52.112;8.606;2022-08-01T09:01:15;25.20;99.60
10411;DHT22;5251;52.112;8.606;2022-08-01T09:03:43;25.20;99.10
10411;DHT22;5251;52.112;8.606;2022-08-01T09:06:08;25.30;98.90
10411;DHT22;5251;52.112;8.606;2022-08-01T09:08:35;25.30;99.10
10411;DHT22;5251;52.112;8.606;2022-08-01T09:11:01;25.40;98.10
10411;DHT22;5251;52.112;8.606;2022-08-01T09:13:26;25.40;99.00
10411;DHT22;5251;52.112;8.606;2022-08-01T09:15:54;25.40;98.30
10411;DHT22;5251;52.112;8.606;2022-08-01T09:18:32;25.40;97.70
10411;DHT22;5251;52.112;8.606;2022-08-01T09:21:19;25.40;97.90
10411;DHT22;5251;52.112;8.606;2022-08-01T09:23:49;25.40;97.90
10411;DHT22;5251;52.112;8.606;2022-08-01T09:26:34;25.50;97.40
10411;DHT22;5251;52.112;8.606;2022-08-01T09:29:04;25.40;97.00
10411;DHT22;5251;52.112;8.606;2022-08-01T09:31:39;25.40;98.10
10411;DHT22;5251;52.112;8.606;2022-08-01T09:34:06;25.40;97.90
10411;DHT22;5251;52.112;8.606;2022-08-01T09:36:53;25.50;97.70
10411;DHT22;5251;52.112;8.606;2022-08-01T09:39:26;25.60;97.50
10411;DHT22;5251;52.112;8.606;2022-08-01T09:41:53;25.60;96.90
10411;DHT22;5251;52.112;8.606;2022-08-01T09:44:19;25.60;96.50
10411;DHT22;5251;52.112;8.606;2022-08-01T09:46:53;25.60;96.10
10411;DHT22;5251;52.112;8.606;2022-08-01T09:49:31;25.60;96.80
10411;DHT22;5251;52.112;8.606;2022-08-01T09:51:58;25.60;96.70
10411;DHT22;5251;52.112;8.606;2022-08-01T09:54:30;25.70;97.50
10411;DHT22;5251;52.112;8.606;2022-08-01T09:59:36;26.00;96.80
10411;DHT22;5251;52.112;8.606;2022-08-01T10:02:03;26.10;96.20
10411;DHT22;5251;52.112;8.606;2022-08-01T10:04:29;26.20;94.80
10411;DHT22;5251;52.112;8.606;2022-08-01T10:07:04;26.30;94.40
10411;DHT22;5251;52.112;8.606;2022-08-01T10:09:33;26.40;94.50
10411;DHT22;5251;52.112;8.606;2022-08-01T10:12:00;26.50;94.10
10411;DHT22;5251;52.112;8.606;2022-08-01T10:14:26;26.50;93.40
10411;DHT22;5251;52.112;8.606;2022-08-01T10:17:00;26.60;93.60
10411;DHT22;5251;52.112;8.606;2022-08-01T10:19:27;26.60;92.50
10411;DHT22;5251;52.112;8.606;2022-08-01T10:21:54;26.60;92.30
10411;DHT22;5251;52.112;8.606;2022-08-01T10:24:21;26.70;91.80
10411;DHT22;5251;52.112;8.606;2022-08-01T10:26:49;26.60;92.10
10411;DHT22;5251;52.112;8.606;2022-08-01T10:29:18;26.70;92.00
10411;DHT22;5251;52.112;8.606;2022-08-01T10:31:46;26.70;91.70
10411;DHT22;5251;52.112;8.606;2022-08-01T10:34:13;26.80;91.90
10411;DHT22;5251;52.112;8.606;2022-08-01T10:36:42;26.70;90.20
10411;DHT22;5251;52.112;8.606;2022-08-01T10:39:10;26.70;90.00
10411;DHT22;5251;52.112;8.606;2022-08-01T10:41:36;26.80;91.30
10411;DHT22;5251;52.112;8.606;2022-08-01T10:44:03;26.80;90.10
10411;DHT22;5251;52.112;8.606;2022-08-01T10:46:30;26.80;89.30
10411;DHT22;5251;52.112;8.606;2022-08-01T10:49:14;26.90;90.00
10411;DHT22;5251;52.112;8.606;2022-08-01T10:51:41;26.90;90.40
10411;DHT22;5251;52.112;8.606;2022-08-01T10:54:09;27.00;90.50
10411;DHT22;5251;52.112;8.606;2022-08-01T10:56:49;27.10;89.50
10411;DHT22;5251;52.112;8.606;2022-08-01T10:59:23;27.30;90.50
10411;DHT22;5251;52.112;8.606;2022-08-01T11:02:01;27.30;89.60
10411;DHT22;5251;52.112;8.606;2022-08-01T11:07:17;27.60;87.50
10411;DHT22;5251;52.112;8.606;2022-08-01T11:09:58;27.70;86.60
10411;DHT22;5251;52.112;8.606;2022-08-01T11:12:38;27.70;84.40
10411;DHT22;5251;52.112;8.606;2022-08-01T11:20:05;28.00;83.80
10411;DHT22;5251;52.112;8.606;2022-08-01T11:22:31;28.10;82.90
10411;DHT22;5251;52.112;8.606;2022-08-01T11:24:57;28.10;82.30
10411;DHT22;5251;52.112;8.606;2022-08-01T11:27:29;28.10;81.70
10411;DHT22;5251;52.112;8.606;2022-08-01T11:32:54;28.10;81.30
10411;DHT22;5251;52.112;8.606;2022-08-01T11:35:23;28.10;81.10
10411;DHT22;5251;52.112;8.606;2022-08-01T11:37:53;28.10;78.50
10411;DHT22;5251;52.112;8.606;2022-08-01T11:40:28;28.10;79.10
10411;DHT22;5251;52.112;8.606;2022-08-01T11:43:16;28.20;79.40
10411;DHT22;5251;52.112;8.606;2022-08-01T11:45:53;28.10;80.50
10411;DHT22;5251;52.112;8.606;2022-08-01T11:48:25;28.20;80.40
10411;DHT22;5251;52.112;8.606;2022-08-01T11:50:56;28.30;79.90
10411;DHT22;5251;52.112;8.606;2022-08-01T11:53:22;28.30;79.10
10411;DHT22;5251;52.112;8.606;2022-08-01T11:55:52;28.30;80.00
10411;DHT22;5251;52.112;8.606;2022-08-01T11:58:25;28.30;77.70
10411;DHT22;5251;52.112;8.606;2022-08-01T12:00:52;28.30;77.10
10411;DHT22;5251;52.112;8.606;2022-08-01T12:03:28;28.20;76.40
10411;DHT22;5251;52.112;8.606;2022-08-01T12:05:55;28.20;77.50
10411;DHT22;5251;52.112;8.606;2022-08-01T12:08:29;28.10;78.90
10411;DHT22;5251;52.112;8.606;2022-08-01T12:10:55;28.20;79.50
10411;DHT22;5251;52.112;8.606;2022-08-01T12:13:21;28.20;77.60
10411;DHT22;5251;52.112;8.606;2022-08-01T12:15:47;28.20;76.80
10411;DHT22;5251;52.112;8.606;2022-08-01T12:18:15;28.10;77.60
10411;DHT22;5251;52.112;8.606;2022-08-01T12:20:43;28.10;76.70
10411;DHT22;5251;52.112;8.606;2022-08-01T12:23:12;28.10;76.50
10411;DHT22;5251;52.112;8.606;2022-08-01T12:25:38;28.00;76.50
10411;DHT22;5251;52.112;8.606;2022-08-01T12:28:10;27.90;77.10
10411;DHT22;5251;52.112;8.606;2022-08-01T12:30:38;27.80;77.90
10411;DHT22;5251;52.112;8.606;2022-08-01T12:33:08;27.70;77.50
10411;DHT22;5251;52.112;8.606;2022-08-01T12:35:36;27.60;77.60
10411;DHT22;5251;52.112;8.606;2022-08-01T12:38:19;27.50;78.70
10411;DHT22;5251;52.112;8.606;2022-08-01T12:40:46;27.40;78.30
10411;DHT22;5251;52.112;8.606;2022-08-01T12:43:20;27.40;79.00
10411;DHT22;5251;52.112;8.606;2022-08-01T12:45:49;27.30;77.80
10411;DHT22;5251;52.112;8.606;2022-08-01T12:48:16;27.30;76.90
10411;DHT22;5251;52.112;8.606;2022-08-01T12:50:47;27.30;78.70
10411;DHT22;5251;52.112;8.606;2022-08-01T12:53:14;27.40;79.20
10411;DHT22;5251;52.112;8.606;2022-08-01T12:58:14;27.40;76.70
10411;DHT22;5251;52.112;8.606;2022-08-01T13:00:41;27.40;76.70
10411;DHT22;5251;52.112;8.606;2022-08-01T13:05:53;27.50;78.00
10411;DHT22;5251;52.112;8.606;2022-08-01T13:08:29;27.60;77.00
10411;DHT22;5251;52.112;8.606;2022-08-01T13:11:15;27.70;75.20
10411;DHT22;5251;52.112;8.606;2022-08-01T13:16:22;27.90;75.50
10411;DHT22;5251;52.112;8.606;2022-08-01T13:18:50;28.00;71.30
10411;DHT22;5251;52.112;8.606;2022-08-01T13:21:24;28.20;72.80
10411;DHT22;5251;52.112;8.606;2022-08-01T13:24:10;28.30;71.10
10411;DHT22;5251;52.112;8.606;2022-08-01T13:26:44;28.40;73.10
10411;DHT22;5251;52.112;8.606;2022-08-01T13:29:12;28.60;72.20
10411;DHT22;5251;52.112;8.606;2022-08-01T13:31:39;28.70;70.20
10411;DHT22;5251;52.112;8.606;2022-08-01T13:34:05;28.80;69.50
10411;DHT22;5251;52.112;8.606;2022-08-01T13:36:31;28.90;68.10
10411;DHT22;5251;52.112;8.606;2022-08-01T13:39:00;29.00;65.20
10411;DHT22;5251;52.112;8.606;2022-08-01T13:41:45;28.90;64.40
10411;DHT22;5251;52.112;8.606;2022-08-01T13:44:11;28.90;66.10
10411;DHT22;5251;52.112;8.606;2022-08-01T13:46:38;28.80;66.50
10411;DHT22;5251;52.112;8.606;2022-08-01T13:49:05;28.80;67.60
10411;DHT22;5251;52.112;8.606;2022-08-01T13:51:31;28.80;65.90
10411;DHT22;5251;52.112;8.606;2022-08-01T13:53:57;28.90;69.00
10411;DHT22;5251;52.112;8.606;2022-08-01T13:56:23;28.90;69.60
10411;DHT22;5251;52.112;8.606;2022-08-01T13:58:50;29.00;67.80
10411;DHT22;5251;52.112;8.606;2022-08-01T14:01:16;29.20;68.40
10411;DHT22;5251;52.112;8.606;2022-08-01T14:03:42;29.20;66.10
10411;DHT22;5251;52.112;8.606;2022-08-01T14:06:07;29.30;66.00
10411;DHT22;5251;52.112;8.606;2022-08-01T14:08:33;29.40;66.00
10411;DHT22;5251;52.112;8.606;2022-08-01T14:10:58;29.40;66.00
10411;DHT22;5251;52.112;8.606;2022-08-01T14:13:25;29.40;64.30
10411;DHT22;5251;52.112;8.606;2022-08-01T14:15:52;29.40;64.30
10411;DHT22;5251;52.112;8.606;2022-08-01T14:18:17;29.40;64.40
10411;DHT22;5251;52.112;8.606;2022-08-01T14:20:43;29.40;65.90
10411;DHT22;5251;52.112;8.606;2022-08-01T14:23:09;29.40;68.10
10411;DHT22;5251;52.112;8.606;2022-08-01T14:25:36;29.30;68.90
10411;DHT22;5251;52.112;8.606;2022-08-01T14:28:02;29.40;68.10
10411;DHT22;5251;52.112;8.606;2022-08-01T14:30:27;29.30;67.50
10411;DHT22;5251;52.112;8.606;2022-08-01T14:32:53;29.40;67.50
10411;DHT22;5251;52.112;8.606;2022-08-01T14:35:18;29.50;66.40
10411;DHT22;5251;52.112;8.606;2022-08-01T14:37:44;29.50;66.10
10411;DHT22;5251;52.112;8.606;2022-08-01T14:40:10;29.60;64.60
10411;DHT22;5251;52.112;8.606;2022-08-01T14:42:37;29.60;62.70
10411;DHT22;5251;52.112;8.606;2022-08-01T14:45:04;29.70;65.00
10411;DHT22;5251;52.112;8.606;2022-08-01T14:47:34;29.70;65.50
10411;DHT22;5251;52.112;8.606;2022-08-01T14:50:00;29.80;66.00
10411;DHT22;5251;52.112;8.606;2022-08-01T14:52:26;29.80;64.60
10411;DHT22;5251;52.112;8.606;2022-08-01T14:54:51;29.90;64.00
10411;DHT22;5251;52.112;8.606;2022-08-01T14:57:17;29.90;64.30
10411;DHT22;5251;52.112;8.606;2022-08-01T14:59:43;29.90;63.10
10411;DHT22;5251;52.112;8.606;2022-08-01T15:02:09;29.90;62.70
10411;DHT22;5251;52.112;8.606;2022-08-01T15:04:36;29.80;63.00
10411;DHT22;5251;52.112;8.606;2022-08-01T15:07:02;29.80;64.10
10411;DHT22;5251;52.112;8.606;2022-08-01T15:09:27;29.70;64.20
10411;DHT22;5251;52.112;8.606;2022-08-01T15:11:53;29.70;65.10
10411;DHT22;5251;52.112;8.606;2022-08-01T15:14:18;29.70;65.10
10411;DHT22;5251;52.112;8.606;2022-08-01T15:17:02;29.70;64.50
10411;DHT22;5251;52.112;8.606;2022-08-01T15:19:28;29.70;67.50
10411;DHT22;5251;52.112;8.606;2022-08-01T15:21:53;29.70;64.70
10411;DHT22;5251;52.112;8.606;2022-08-01T15:24:19;29.70;65.20
10411;DHT22;5251;52.112;8.606;2022-08-01T15:26:44;29.60;64.40
10411;DHT22;5251;52.112;8.606;2022-08-01T15:29:10;29.50;64.00
10411;DHT22;5251;52.112;8.606;2022-08-01T15:31:37;29.40;64.10
10411;DHT22;5251;52.112;8.606;2022-08-01T15:34:03;29.40;64.50
10411;DHT22;5251;52.112;8.606;2022-08-01T15:36:28;29.30;63.50
10411;DHT22;5251;52.112;8.606;2022-08-01T15:38:54;29.20;63.90
10411;DHT22;5251;52.112;8.606;2022-08-01T15:41:20;29.00;65.00
10411;DHT22;5251;52.112;8.606;2022-08-01T15:43:46;28.90;63.60
10411;DHT22;5251;52.112;8.606;2022-08-01T15:46:11;28.80;64.10
10411;DHT22;5251;52.112;8.606;2022-08-01T15:48:37;28.60;64.00
10411;DHT22;5251;52.112;8.606;2022-08-01T15:51:02;28.50;64.70
10411;DHT22;5251;52.112;8.606;2022-08-01T15:53:28;28.50;66.10
10411;DHT22;5251;52.112;8.606;2022-08-01T15:55:53;28.50;64.70
10411;DHT22;5251;52.112;8.606;2022-08-01T15:58:19;28.50;66.20
10411;DHT22;5251;52.112;8.606;2022-08-01T16:00:45;28.40;66.40
10411;DHT22;5251;52.112;8.606;2022-08-01T16:03:10;28.40;65.20
10411;DHT22;5251;52.112;8.606;2022-08-01T16:05:36;28.40;67.70
10411;DHT22;5251;52.112;8.606;2022-08-01T16:08:03;28.40;66.30
10411;DHT22;5251;52.112;8.606;2022-08-01T16:10:29;28.50;66.00
10411;DHT22;5251;52.112;8.606;2022-08-01T16:12:55;28.50;66.20
10411;DHT22;5251;52.112;8.606;2022-08-01T16:15:20;28.50;64.70
10411;DHT22;5251;52.112;8.606;2022-08-01T16:17:46;28.40;64.50
10411;DHT22;5251;52.112;8.606;2022-08-01T16:20:12;28.40;63.60
10411;DHT22;5251;52.112;8.606;2022-08-01T16:22:37;28.30;63.80